Time;durP1;ratioP1;P1;durP2;ratioP2;P2;SDS_P1;SDS_P2;PMS_P1;PMS_P2;Temp;Humidity;BMP_temperature;BMP_pressure;BME280_temperature;BME280_humidity;BME280_pressure;Samples;Min_cycle;Max_cycle;Signal;HPM_P1;HPM_P2
2022/10/24 00:00:30;;;;;;;;;1.00;1.00;;;;;18.53;58.12;100200.63;5078619;28;45429;-69
2022/10/24 00:02:55;;;;;;;;;3.67;1.00;;;;;18.52;58.29;100190.06;5077703;28;45303;-67
2022/10/24 00:05:21;;;;;;;;;0.33;0.00;;;;;18.34;58.29;100175.72;5074802;28;45712;-69
2022/10/24 00:07:48;;;;;;;;;2.00;0.00;;;;;18.46;58.38;100204.44;5076264;28;45489;-69
2022/10/24 00:10:14;;;;;;;;;1.00;1.00;;;;;18.42;58.60;100202.81;5078537;27;45789;-69
2022/10/24 00:12:39;;;;;;;;;0.33;0.33;;;;;18.33;58.93;100204.03;5078558;28;45436;-67
2022/10/24 00:15:06;;;;;;;;;5.00;0.33;;;;;18.22;59.08;100177.97;5072989;27;45676;-66
2022/10/24 00:17:32;;;;;;;;;1.00;1.00;;;;;18.26;59.21;100205.19;5056364;28;47300;-68
2022/10/24 00:19:59;;;;;;;;;1.67;1.00;;;;;18.10;59.51;100175.75;5074543;28;45522;-69
2022/10/24 00:22:26;;;;;;;;;1.00;1.00;;;;;18.14;59.64;100192.41;5074473;27;45424;-67
2022/10/24 00:24:51;;;;;;;;;0.67;0.67;;;;;18.11;59.51;100195.19;5074376;28;45419;-69
2022/10/24 00:27:17;;;;;;;;;1.33;0.00;;;;;18.07;60.03;100193.56;5077526;28;45383;-69
2022/10/24 00:29:42;;;;;;;;;1.00;1.00;;;;;17.94;59.90;100183.44;5078323;28;45406;-68
2022/10/24 00:32:08;;;;;;;;;1.33;1.33;;;;;17.88;59.96;100185.44;5076729;28;45402;-67
2022/10/24 00:34:33;;;;;;;;;3.33;1.00;;;;;17.94;60.36;100201.13;5073549;28;45377;-67
2022/10/24 00:36:59;;;;;;;;;3.33;0.67;;;;;17.92;60.14;100189.72;5073466;28;46283;-68
2022/10/24 00:39:25;;;;;;;;;2.00;1.00;;;;;17.93;60.28;100191.44;5073240;28;46006;-65
2022/10/24 00:41:53;;;;;;;;;1.00;1.00;;;;;17.92;59.93;100213.56;5069055;28;45451;-66
2022/10/24 00:44:30;;;;;;;;;2.33;2.00;;;;;17.91;60.42;100206.50;5066943;28;45452;-68
2022/10/24 00:47:01;;;;;;;;;3.67;1.00;;;;;17.80;60.49;100178.63;5073259;28;45457;-67
2022/10/24 00:49:45;;;;;;;;;2.67;1.33;;;;;17.92;60.41;100200.31;5055206;28;45762;-68
2022/10/24 00:52:15;;;;;;;;;0.00;0.00;;;;;17.91;60.29;100187.97;5073761;28;45507;-69
2022/10/24 00:54:41;;;;;;;;;4.00;1.00;;;;;17.83;60.54;100184.75;5074318;28;45442;-69
2022/10/24 00:57:32;;;;;;;;;0.67;0.67;;;;;17.90;60.67;100199.50;5076185;28;45533;-68
2022/10/24 01:00:04;;;;;;;;;2.00;1.00;;;;;17.91;60.65;100204.72;5059221;28;45552;-68
2022/10/24 01:02:30;;;;;;;;;1.00;1.00;;;;;17.85;60.90;100217.34;5077858;28;45354;-68
2022/10/24 01:04:56;;;;;;;;;1.00;1.00;;;;;17.78;60.88;100203.44;5051707;28;46007;-67
2022/10/24 01:07:50;;;;;;;;;0.00;0.00;;;;;17.84;61.03;100219.09;5068629;28;45757;-68
2022/10/24 01:10:34;;;;;;;;;0.00;0.00;;;;;17.86;60.80;100224.38;5073290;28;45712;-66
2022/10/24 01:13:08;;;;;;;;;5.00;0.00;;;;;17.84;60.93;100224.41;5076771;28;45496;-68
2022/10/24 01:15:34;;;;;;;;;2.33;0.00;;;;;17.86;61.15;100232.31;5054431;28;45759;-68
2022/10/24 01:18:14;;;;;;;;;3.33;0.33;;;;;17.80;61.30;100234.28;5066382;28;46063;-68
2022/10/24 01:21:04;;;;;;;;;1.33;0.00;;;;;17.82;61.50;100250.13;5077692;28;45434;-68
2022/10/24 01:23:41;;;;;;;;;3.00;1.00;;;;;17.77;61.67;100254.66;5077513;27;45287;-68
2022/10/24 01:26:26;;;;;;;;;1.33;1.00;;;;;17.76;61.47;100261.75;5058323;28;45604;-67
2022/10/24 01:29:03;;;;;;;;;1.00;0.00;;;;;17.76;61.89;100267.03;5073414;27;45478;-66
2022/10/24 01:31:45;;;;;;;;;0.33;0.33;;;;;17.80;61.65;100266.06;5074312;28;45452;-67
2022/10/24 01:34:23;;;;;;;;;1.00;1.00;;;;;17.84;61.50;100265.94;5076193;27;45436;-64
2022/10/24 01:37:17;;;;;;;;;0.33;0.33;;;;;17.95;61.50;100279.69;5080899;27;45407;-65
2022/10/24 01:39:52;;;;;;;;;2.33;1.00;;;;;17.96;61.64;100278.75;5058020;28;46474;-67
2022/10/24 01:42:23;;;;;;;;;0.00;0.00;;;;;17.97;61.45;100273.41;5068198;28;45393;-66
2022/10/24 01:44:53;;;;;;;;;0.67;0.00;;;;;17.98;61.34;100269.81;5072072;27;45400;-66
2022/10/24 01:47:27;;;;;;;;;2.67;1.00;;;;;17.92;61.37;100271.84;5081076;28;45824;-68
2022/10/24 01:49:58;;;;;;;;;2.00;0.33;;;;;18.01;61.23;100267.06;5062307;28;46318;-69
2022/10/24 01:52:30;;;;;;;;;3.67;0.00;;;;;17.95;61.04;100245.22;5080211;28;45461;-68
2022/10/24 01:54:56;;;;;;;;;2.00;0.00;;;;;17.92;61.45;100253.31;5057941;28;45434;-68
2022/10/24 01:57:30;;;;;;;;;0.00;0.00;;;;;17.92;61.89;100259.47;5061614;27;45508;-68
2022/10/24 01:59:55;;;;;;;;;0.00;0.00;;;;;17.83;61.32;100233.28;5057078;28;47052;-68
2022/10/24 02:02:28;;;;;;;;;0.33;0.00;;;;;17.93;61.32;100250.56;5076442;28;45701;-69
2022/10/24 02:05:08;;;;;;;;;2.33;1.00;;;;;17.91;60.96;100254.19;5076288;28;45562;-68
2022/10/24 02:07:36;;;;;;;;;0.00;0.00;;;;;17.91;61.53;100264.81;5058839;28;45533;-67
2022/10/24 02:10:10;;;;;;;;;1.33;0.00;;;;;17.92;61.27;100267.41;5073403;28;45517;-68
2022/10/24 02:12:40;;;;;;;;;4.67;1.00;;;;;17.78;61.31;100241.38;5069303;28;45472;-66
2022/10/24 02:15:21;;;;;;;;;0.00;0.00;;;;;17.84;61.82;100260.63;5060517;28;45537;-65
2022/10/24 02:17:58;;;;;;;;;0.00;0.00;;;;;17.74;61.85;100255.63;5040400;28;45790;-67
2022/10/24 02:20:33;;;;;;;;;1.33;1.00;;;;;17.83;61.73;100249.19;5055820;28;45429;-69
2022/10/24 02:23:19;;;;;;;;;2.00;1.00;;;;;17.68;62.05;100229.38;5071180;27;45407;-67
2022/10/24 02:25:49;;;;;;;;;1.67;0.33;;;;;17.55;62.16;100210.38;5074281;27;45442;-66
2022/10/24 02:28:21;;;;;;;;;1.00;1.00;;;;;17.68;62.38;100228.53;5076594;28;45579;-68
2022/10/24 02:31:11;;;;;;;;;1.33;0.33;;;;;17.65;62.40;100218.00;5076242;28;45744;-68
2022/10/24 02:33:40;;;;;;;;;2.00;0.33;;;;;17.64;62.89;100222.44;5070870;28;46268;-67
2022/10/24 02:36:09;;;;;;;;;1.00;1.00;;;;;17.60;62.80;100224.31;5041314;28;45388;-65
2022/10/24 02:38:41;;;;;;;;;4.33;1.00;;;;;17.57;62.77;100203.25;5072496;28;45627;-66
2022/10/24 02:41:11;;;;;;;;;4.00;2.00;;;;;17.56;62.96;100219.22;5068605;28;47781;-67
2022/10/24 02:43:41;;;;;;;;;2.00;0.67;;;;;17.59;63.05;100216.47;5076318;27;45378;-66
2022/10/24 02:46:10;;;;;;;;;1.33;0.00;;;;;17.59;62.89;100213.81;5041461;28;45358;-66
2022/10/24 02:48:41;;;;;;;;;4.67;1.00;;;;;17.57;62.79;100213.00;5041407;28;45529;-64
2022/10/24 02:51:08;;;;;;;;;1.00;1.00;;;;;17.41;63.09;100195.91;5061264;28;47913;-66
2022/10/24 02:53:35;;;;;;;;;0.00;0.00;;;;;17.37;63.03;100188.09;5078578;27;45520;-67
2022/10/24 02:56:02;;;;;;;;;1.00;0.00;;;;;17.34;63.28;100190.81;5075402;28;45513;-67
2022/10/24 02:58:27;;;;;;;;;2.33;0.00;;;;;17.33;63.46;100209.41;5057294;28;45484;-68
2022/10/24 03:00:53;;;;;;;;;1.00;0.00;;;;;17.35;64.02;100203.16;5052316;28;47894;-68
2022/10/24 03:03:19;;;;;;;;;0.67;0.67;;;;;17.27;63.88;100199.88;5055380;28;45395;-67
2022/10/24 03:05:44;;;;;;;;;3.00;1.00;;;;;17.26;63.65;100203.47;5054942;28;45488;-68
2022/10/24 03:08:11;;;;;;;;;0.00;0.00;;;;;17.27;64.22;100209.63;5063627;27;45571;-67
2022/10/24 03:10:37;;;;;;;;;0.67;0.67;;;;;17.17;63.83;100194.03;5074414;27;46199;-66
2022/10/24 03:13:02;;;;;;;;;2.67;1.00;;;;;17.30;64.01;100209.53;5075213;28;45500;-69
2022/10/24 03:15:29;;;;;;;;;1.00;0.67;;;;;17.32;63.83;100218.25;5075589;28;45557;-68
2022/10/24 03:17:54;;;;;;;;;3.33;0.00;;;;;17.23;64.20;100218.59;5056879;28;46104;-68
2022/10/24 03:20:20;;;;;;;;;1.00;1.00;;;;;17.17;64.18;100209.94;5078633;27;45441;-68
2022/10/24 03:22:45;;;;;;;;;1.33;1.33;;;;;17.22;64.25;100230.09;5079110;28;45452;-68
2022/10/24 03:25:11;;;;;;;;;5.00;0.00;;;;;17.24;64.55;100236.19;5059104;28;45370;-67
2022/10/24 03:27:37;;;;;;;;;4.33;0.00;;;;;17.20;64.74;100232.78;5075066;27;45347;-66
2022/10/24 03:30:03;;;;;;;;;3.00;1.00;;;;;17.20;64.58;100234.56;5059348;28;45491;-67
2022/10/24 03:32:29;;;;;;;;;2.33;0.00;;;;;17.24;64.52;100234.41;5078999;27;45357;-69
2022/10/24 03:34:55;;;;;;;;;2.67;1.00;;;;;17.14;64.73;100227.69;5071436;28;45444;-67
2022/10/24 03:37:20;;;;;;;;;2.33;0.33;;;;;17.19;64.52;100236.34;5055072;28;45418;-68
2022/10/24 03:39:46;;;;;;;;;3.00;0.00;;;;;17.14;64.52;100228.56;5035804;28;47258;-67
2022/10/24 03:42:12;;;;;;;;;2.00;0.33;;;;;17.22;64.46;100235.38;5053964;28;45450;-68
2022/10/24 03:44:37;;;;;;;;;1.33;0.00;;;;;17.30;64.71;100250.09;5036043;28;45414;-68
2022/10/24 03:47:03;;;;;;;;;1.33;0.67;;;;;17.32;64.35;100242.97;5055953;28;45433;-69
2022/10/24 03:49:28;;;;;;;;;3.00;1.33;;;;;17.36;64.32;100247.22;5053873;28;45411;-67
2022/10/24 03:51:54;;;;;;;;;1.67;0.00;;;;;17.42;64.18;100266.50;5056294;28;45542;-68
2022/10/24 03:54:20;;;;;;;;;2.33;0.00;;;;;17.39;64.28;100264.78;5074401;28;45415;-66
2022/10/24 03:56:46;;;;;;;;;4.00;0.00;;;;;17.33;64.22;100255.28;5075889;27;45362;-68
2022/10/24 03:59:12;;;;;;;;;0.67;0.67;;;;;17.23;64.52;100255.66;5078848;28;46462;-69
2022/10/24 04:01:38;;;;;;;;;1.33;0.00;;;;;17.17;64.90;100265.50;5078359;28;45473;-66
2022/10/24 04:04:04;;;;;;;;;2.00;2.00;;;;;17.20;64.97;100277.75;5078547;27;45494;-65
2022/10/24 04:06:30;;;;;;;;;1.33;1.00;;;;;17.15;65.13;100263.81;5078740;28;45428;-68
2022/10/24 04:08:56;;;;;;;;;2.00;1.33;;;;;17.20;65.13;100288.34;5078169;28;46136;-67
2022/10/24 04:11:22;;;;;;;;;1.33;1.00;;;;;17.13;65.35;100273.59;5076144;28;45439;-68
2022/10/24 04:13:48;;;;;;;;;2.00;0.33;;;;;17.14;65.30;100284.13;5074116;28;45550;-66
2022/10/24 04:16:16;;;;;;;;;1.00;1.00;;;;;17.16;65.41;100284.09;5077237;28;45378;-68
2022/10/24 04:18:48;;;;;;;;;0.67;0.33;;;;;17.05;65.53;100272.97;5056208;27;47800;-70
2022/10/24 04:21:17;;;;;;;;;4.33;1.00;;;;;17.02;65.43;100271.31;5055921;28;45980;-69
2022/10/24 04:23:46;;;;;;;;;1.33;0.00;;;;;17.15;65.28;100296.44;5074484;27;45916;-69
2022/10/24 04:26:15;;;;;;;;;2.00;1.33;;;;;17.14;65.99;100297.38;5074596;28;45412;-69
2022/10/24 04:28:40;;;;;;;;;2.67;1.33;;;;;16.91;65.73;100270.75;5074530;28;46453;-69
2022/10/24 04:31:06;;;;;;;;;1.67;1.00;;;;;17.02;65.66;100289.81;5073732;28;45807;-66
2022/10/24 04:33:32;;;;;;;;;1.00;1.00;;;;;16.91;66.02;100282.22;5073947;28;45678;-69
2022/10/24 04:35:57;;;;;;;;;3.00;1.00;;;;;17.01;65.61;100314.53;5061521;28;45451;-67
2022/10/24 04:38:23;;;;;;;;;3.67;1.00;;;;;17.04;66.03;100318.88;5053193;28;45475;-67
2022/10/24 04:40:51;;;;;;;;;4.00;1.67;;;;;16.99;66.26;100320.78;5063767;28;45560;-67
2022/10/24 04:43:18;;;;;;;;;3.33;1.00;;;;;16.96;66.18;100332.31;5054670;28;45494;-67
2022/10/24 04:45:43;;;;;;;;;2.00;0.67;;;;;16.90;66.28;100304.28;5055284;28;45489;-69
2022/10/24 04:48:09;;;;;;;;;1.33;1.33;;;;;17.01;66.06;100335.69;5072911;28;45536;-68
2022/10/24 04:50:35;;;;;;;;;1.00;0.00;;;;;17.05;66.06;100342.63;5073331;28;45549;-67
2022/10/24 04:53:01;;;;;;;;;3.67;2.00;;;;;17.01;66.16;100348.06;5075094;27;45438;-68
2022/10/24 04:55:27;;;;;;;;;2.00;0.00;;;;;16.98;66.37;100353.47;5059624;28;45363;-68
2022/10/24 04:57:53;;;;;;;;;1.00;1.00;;;;;16.77;66.57;100313.47;5055360;28;46802;-68
2022/10/24 05:00:19;;;;;;;;;4.33;1.67;;;;;16.89;66.39;100344.88;5072813;28;45762;-66
2022/10/24 05:02:44;;;;;;;;;1.67;0.67;;;;;16.92;66.65;100347.44;5073994;28;45410;-68
2022/10/24 05:05:10;;;;;;;;;1.67;0.67;;;;;16.82;66.34;100338.03;5075084;28;45461;-69
2022/10/24 05:07:36;;;;;;;;;2.00;1.67;;;;;16.86;66.61;100363.50;5045745;28;47892;-68
2022/10/24 05:10:03;;;;;;;;;1.00;1.00;;;;;16.65;66.65;100333.22;5056270;28;45740;-68
2022/10/24 05:12:28;;;;;;;;;4.33;1.33;;;;;16.86;66.37;100366.13;5054449;28;45603;-68
2022/10/24 05:14:54;;;;;;;;;3.67;2.00;;;;;16.81;66.75;100362.75;5076623;28;45180;-67
2022/10/24 05:17:20;;;;;;;;;1.00;0.33;;;;;16.88;66.72;100377.53;5054800;28;46978;-66
2022/10/24 05:19:45;;;;;;;;;0.00;0.00;;;;;16.85;66.83;100375.00;5073358;28;45679;-67
2022/10/24 05:22:11;;;;;;;;;2.00;1.00;;;;;16.86;66.71;100379.34;5072672;27;45616;-66
2022/10/24 05:24:37;;;;;;;;;4.33;0.67;;;;;16.95;66.53;100375.59;5073784;28;46372;-66
2022/10/24 05:27:02;;;;;;;;;4.00;1.33;;;;;16.87;66.80;100367.88;5073103;28;45469;-66
2022/10/24 05:29:28;;;;;;;;;1.00;0.33;;;;;16.90;66.89;100386.28;5077670;27;46313;-68
2022/10/24 05:31:53;;;;;;;;;1.00;0.67;;;;;16.87;67.03;100383.75;5076786;28;45529;-68
2022/10/24 05:34:19;;;;;;;;;3.00;2.00;;;;;16.86;67.08;100389.94;5073110;27;45326;-67
2022/10/24 05:36:44;;;;;;;;;0.00;0.00;;;;;16.82;67.20;100400.66;5065458;28;46379;-68
2022/10/24 05:39:10;;;;;;;;;3.00;1.00;;;;;16.80;67.63;100392.78;5074370;28;45349;-68
2022/10/24 05:41:35;;;;;;;;;6.00;2.67;;;;;16.84;67.50;100407.63;5072820;28;45784;-69
2022/10/24 05:44:01;;;;;;;;;3.00;1.00;;;;;16.95;67.22;100418.78;5054767;28;45509;-70
2022/10/24 05:46:27;;;;;;;;;3.67;2.00;;;;;16.88;67.55;100414.56;5077235;27;46139;-67
2022/10/24 05:48:52;;;;;;;;;3.33;2.00;;;;;16.83;67.84;100415.63;5059021;28;45678;-68
2022/10/24 05:51:18;;;;;;;;;5.00;1.00;;;;;16.81;68.15;100415.66;5075042;28;45379;-67
2022/10/24 05:53:44;;;;;;;;;3.00;0.67;;;;;16.80;67.95;100408.66;5072704;28;45491;-68
2022/10/24 05:56:10;;;;;;;;;4.33;1.33;;;;;16.79;67.98;100406.03;5072924;28;46033;-69
2022/10/24 05:58:35;;;;;;;;;1.67;1.33;;;;;16.72;68.21;100403.53;5072858;28;45575;-69
2022/10/24 06:01:01;;;;;;;;;6.00;1.67;;;;;16.71;68.06;100393.88;5073156;28;45559;-68
2022/10/24 06:03:26;;;;;;;;;2.67;1.00;;;;;16.86;67.66;100412.88;5054642;28;45978;-67
2022/10/24 06:05:55;;;;;;;;;3.00;1.67;;;;;16.86;67.73;100410.25;5072524;28;46372;-67
2022/10/24 06:08:25;;;;;;;;;2.00;1.00;;;;;16.82;68.00;100411.22;5073337;28;45655;-67
2022/10/24 06:11:22;;;;;;;;;3.00;1.00;;;;;16.82;67.48;100408.59;5054843;28;45570;-67
2022/10/24 06:13:48;;;;;;;;;2.33;1.33;;;;;16.88;67.51;100422.50;5072367;27;45497;-66
2022/10/24 06:16:23;;;;;;;;;5.00;0.67;;;;;16.88;67.66;100422.50;5055993;28;47117;-67
2022/10/24 06:18:49;;;;;;;;;2.67;1.00;;;;;16.89;67.50;100407.50;5075156;28;45426;-68
2022/10/24 06:21:15;;;;;;;;;4.67;1.33;;;;;16.94;67.12;100427.63;5057070;28;45537;-68
2022/10/24 06:23:41;;;;;;;;;3.00;1.33;;;;;16.95;67.17;100426.72;5075771;28;45460;-68
2022/10/24 06:26:09;;;;;;;;;1.00;1.00;;;;;16.92;67.13;100429.44;5076351;28;45714;-70
2022/10/24 06:28:36;;;;;;;;;5.00;0.00;;;;;16.92;67.61;100423.31;5059224;28;45591;-67
2022/10/24 06:31:02;;;;;;;;;1.00;0.00;;;;;16.91;67.10;100421.53;5058692;28;46353;-67
2022/10/24 06:33:29;;;;;;;;;4.00;1.00;;;;;16.90;67.01;100417.19;5062376;28;45559;-68
2022/10/24 06:35:57;;;;;;;;;3.67;1.00;;;;;16.86;66.99;100440.19;5045826;28;45600;-67
2022/10/24 06:38:23;;;;;;;;;2.67;1.00;;;;;16.81;67.04;100430.66;5059143;27;45652;-68
2022/10/24 06:40:49;;;;;;;;;4.00;2.00;;;;;16.77;67.28;100427.19;5075710;28;45501;-66
2022/10/24 06:43:15;;;;;;;;;2.00;1.00;;;;;16.79;66.90;100438.63;5075242;27;45826;-67
2022/10/24 06:45:40;;;;;;;;;2.33;1.00;;;;;16.76;67.02;100438.69;5057145;28;45568;-68
2022/10/24 06:48:06;;;;;;;;;4.67;1.67;;;;;16.81;66.72;100442.09;5053331;28;45385;-69
2022/10/24 06:50:32;;;;;;;;;3.00;2.00;;;;;16.86;66.55;100453.41;5075372;28;45885;-69
2022/10/24 06:52:58;;;;;;;;;5.33;1.33;;;;;16.82;66.81;100457.06;5056894;28;45575;-69
2022/10/24 06:55:23;;;;;;;;;5.33;2.00;;;;;16.77;66.68;100452.78;5061212;28;46997;-68
2022/10/24 06:57:49;;;;;;;;;4.33;2.00;;;;;16.65;67.57;100446.06;5061572;28;45369;-68
2022/10/24 07:00:15;;;;;;;;;6.00;3.00;;;;;16.63;67.15;100445.22;5079702;28;45552;-68
2022/10/24 07:02:40;;;;;;;;;2.67;1.00;;;;;16.61;67.57;100444.41;5076494;28;45441;-69
2022/10/24 07:05:09;;;;;;;;;2.00;1.67;;;;;16.73;67.37;100450.22;5056444;27;45512;-67
2022/10/24 07:07:34;;;;;;;;;2.00;1.33;;;;;16.74;66.75;100464.31;5079235;27;45412;-69
2022/10/24 07:10:00;;;;;;;;;2.67;2.33;;;;;16.79;67.15;100466.88;5077860;28;45450;-69
2022/10/24 07:12:25;;;;;;;;;4.00;1.33;;;;;16.72;67.26;100463.47;5075326;28;45319;-68
2022/10/24 07:14:51;;;;;;;;;8.33;3.67;;;;;16.54;67.40;100447.22;5075014;28;46478;-68
2022/10/24 07:17:18;;;;;;;;;4.67;2.00;;;;;16.61;67.60;100468.19;5056606;28;45472;-68
2022/10/24 07:19:44;;;;;;;;;4.67;1.00;;;;;16.64;67.43;100461.06;5075042;28;45440;-68
2022/10/24 07:22:10;;;;;;;;;3.33;1.00;;;;;16.70;67.47;100481.16;5056723;28;45400;-68
2022/10/24 07:24:36;;;;;;;;;5.67;2.00;;;;;16.70;67.12;100481.16;5075031;27;45590;-67
2022/10/24 07:27:02;;;;;;;;;2.67;2.00;;;;;16.77;67.06;100498.59;5075217;28;45446;-68
2022/10/24 07:29:28;;;;;;;;;4.00;1.00;;;;;16.89;66.64;100500.06;5077272;27;45312;-69
2022/10/24 07:31:53;;;;;;;;;3.00;1.33;;;;;17.05;65.96;100501.38;5057618;28;45464;-68
2022/10/24 07:34:22;;;;;;;;;5.67;1.33;;;;;17.22;65.82;100505.31;5069751;27;47492;-67
2022/10/24 07:36:48;;;;;;;;;4.00;1.00;;;;;17.31;65.54;100513.00;5036296;28;45443;-68
2022/10/24 07:39:13;;;;;;;;;2.67;1.00;;;;;17.21;65.75;100507.13;5052793;28;45901;-67
2022/10/24 07:41:40;;;;;;;;;4.00;3.00;;;;;17.26;65.60;100510.47;5073708;27;45429;-67
2022/10/24 07:44:07;;;;;;;;;2.33;2.00;;;;;17.32;65.67;100510.31;5076075;28;46120;-66
2022/10/24 07:46:33;;;;;;;;;4.00;3.00;;;;;17.26;65.50;100507.84;5055794;28;45845;-65
2022/10/24 07:48:59;;;;;;;;;5.33;2.67;;;;;17.21;66.19;100523.00;5074489;28;45900;-68
2022/10/24 07:51:27;;;;;;;;;6.33;2.00;;;;;17.22;65.81;100537.94;5075693;28;45446;-66
2022/10/24 07:53:53;;;;;;;;;5.00;2.00;;;;;17.26;65.71;100529.00;5058414;28;45614;-67
2022/10/24 07:56:18;;;;;;;;;7.33;1.00;;;;;17.27;65.23;100508.69;5056170;28;45817;-66
2022/10/24 07:58:46;;;;;;;;;2.33;1.33;;;;;17.62;64.66;100536.78;5074493;28;45356;-67
2022/10/24 08:01:17;;;;;;;;;2.33;1.00;;;;;17.70;64.48;100526.84;5074765;27;45571;-66
2022/10/24 08:03:43;;;;;;;;;3.67;2.67;;;;;17.84;63.98;100552.91;5077924;28;46633;-67
2022/10/24 08:06:12;;;;;;;;;4.00;2.67;;;;;17.62;64.26;100523.53;5077086;28;45368;-68
2022/10/24 08:08:38;;;;;;;;;2.00;2.00;;;;;17.76;64.44;100544.31;5074537;27;45348;-68
2022/10/24 08:11:16;;;;;;;;;2.33;2.00;;;;;17.77;64.30;100528.38;5074036;28;45320;-69
2022/10/24 08:13:42;;;;;;;;;9.33;2.00;;;;;17.93;64.02;100546.47;5073829;27;45515;-66
2022/10/24 08:16:10;;;;;;;;;4.33;1.33;;;;;17.77;64.30;100543.38;5076827;28;45693;-67
2022/10/24 08:18:36;;;;;;;;;3.00;2.33;;;;;17.67;64.33;100545.44;5073588;27;45796;-67
2022/10/24 08:21:04;;;;;;;;;1.67;1.00;;;;;17.71;64.51;100548.88;5074153;27;45300;-68
2022/10/24 08:23:32;;;;;;;;;4.00;1.00;;;;;17.67;64.84;100555.19;5073919;27;45445;-70
2022/10/24 08:25:58;;;;;;;;;1.00;1.00;;;;;17.68;64.60;100552.50;5072667;28;45491;-68
2022/10/24 08:28:24;;;;;;;;;9.33;2.00;;;;;17.62;64.86;100563.25;5074422;27;45755;-67
2022/10/24 08:31:05;;;;;;;;;3.00;1.00;;;;;17.70;64.53;100558.63;5074453;28;45520;-68
2022/10/24 08:33:31;;;;;;;;;4.00;1.67;;;;;17.68;64.67;100559.59;5072204;27;47750;-70
2022/10/24 08:36:02;;;;;;;;;6.00;1.67;;;;;17.66;64.42;100542.88;5064099;28;45441;-70
2022/10/24 08:38:28;;;;;;;;;3.67;2.00;;;;;17.57;64.45;100552.81;5058506;28;46490;-71
2022/10/24 08:40:56;;;;;;;;;2.33;1.33;;;;;17.63;64.48;100575.59;5057552;28;45565;-68
2022/10/24 08:43:22;;;;;;;;;3.33;1.00;;;;;17.56;64.57;100553.72;5057985;28;45558;-69
2022/10/24 08:46:05;;;;;;;;;3.33;1.00;;;;;17.65;64.42;100557.88;5056417;28;45604;-68
2022/10/24 08:48:46;;;;;;;;;3.33;2.00;;;;;17.78;64.08;100564.53;5053454;28;45501;-71
2022/10/24 08:51:46;;;;;;;;;3.00;2.00;;;;;17.84;63.94;100574.09;5071559;28;45727;-69
2022/10/24 08:54:17;;;;;;;;;3.00;3.00;;;;;17.74;64.00;100572.63;5073434;27;46570;-69
2022/10/24 08:56:43;;;;;;;;;2.67;1.67;;;;;17.75;63.94;100569.94;5073783;28;45376;-69
2022/10/24 08:59:12;;;;;;;;;2.33;1.00;;;;;17.80;63.87;100560.09;5059403;28;45449;-68
2022/10/24 09:01:55;;;;;;;;;2.00;2.00;;;;;17.88;64.03;100578.41;5076861;28;45406;-69
2022/10/24 09:04:25;;;;;;;;;2.00;1.00;;;;;17.89;64.40;100592.50;5068046;28;46088;-68
2022/10/24 09:06:54;;;;;;;;;3.33;0.00;;;;;17.90;64.25;100594.25;5060082;28;45355;-66
2022/10/24 09:09:32;;;;;;;;;6.67;2.33;;;;;18.02;63.86;100573.53;5064477;28;45556;-68
2022/10/24 09:12:07;;;;;;;;;6.00;3.00;;;;;18.28;63.07;100571.84;5066286;28;45571;-67
2022/10/24 09:14:37;;;;;;;;;7.00;2.00;;;;;19.54;59.93;100582.53;5073966;27;45626;-69
2022/10/24 09:17:18;;;;;;;;;4.67;3.00;;;;;20.37;57.61;100585.50;5069477;28;45363;-66
2022/10/24 09:19:55;;;;;;;;;3.00;1.00;;;;;21.61;54.55;100557.94;5067694;28;45508;-71
2022/10/24 09:22:24;;;;;;;;;3.00;3.00;;;;;22.66;51.66;100577.78;5060372;28;45363;-70
2022/10/24 09:25:14;;;;;;;;;4.00;2.33;;;;;21.97;51.86;100565.13;5053272;28;46931;-65
2022/10/24 09:28:03;;;;;;;;;4.67;1.00;;;;;24.19;47.95;100582.03;5034627;28;45513;-66
2022/10/24 09:30:37;;;;;;;;;4.33;1.33;;;;;25.39;43.72;100561.56;5041999;28;45440;-66
2022/10/24 09:33:41;;;;;;;;;4.00;1.00;;;;;24.97;44.83;100584.66;5051872;27;45403;-67
2022/10/24 09:36:27;;;;;;;;;5.00;2.75;;;;;23.85;46.69;100586.63;5068832;28;46336;-66
2022/10/24 09:39:40;;;;;;;;;5.25;2.00;;;;;22.26;50.53;100597.56;5042536;28;45480;-67
2022/10/24 09:42:25;;;;;;;;;2.50;2.50;;;;;21.48;52.43;100594.09;5047431;28;45526;-67
2022/10/24 09:45:06;;;;;;;;;4.00;1.25;;;;;20.84;54.32;100605.75;5068614;27;45471;-66
2022/10/24 09:47:47;;;;;;;;;5.00;2.00;;;;;20.39;55.41;100622.69;5065941;27;46340;-69
2022/10/24 09:50:26;;;;;;;;;4.00;2.00;;;;;20.16;56.21;100597.84;5042274;28;45463;-66
2022/10/24 09:52:58;;;;;;;;;3.33;2.00;;;;;20.06;57.02;100623.09;5054158;28;45469;-64
2022/10/24 09:55:30;;;;;;;;;3.33;2.00;;;;;19.91;57.85;100632.53;5070188;28;45500;-66
2022/10/24 09:57:59;;;;;;;;;3.00;1.67;;;;;19.55;58.25;100595.78;5060573;28;45995;-65
2022/10/24 10:00:31;;;;;;;;;3.00;2.00;;;;;19.52;58.95;100610.94;5054455;28;45771;-67
2022/10/24 10:03:19;;;;;;;;;2.67;1.00;;;;;19.57;59.03;100620.47;5070549;28;45591;-65
2022/10/24 10:05:46;;;;;;;;;2.67;2.67;;;;;20.00;57.59;100620.66;5074374;28;45488;-66
2022/10/24 10:08:21;;;;;;;;;2.67;1.33;;;;;20.09;57.73;100630.94;5049686;28;46740;-65
2022/10/24 10:11:04;;;;;;;;;2.00;1.00;;;;;20.05;57.83;100629.31;5045660;28;45484;-65
2022/10/24 10:13:36;;;;;;;;;2.33;0.33;;;;;19.89;57.80;100615.78;5049309;28;45754;-65
2022/10/24 10:16:06;;;;;;;;;3.00;1.67;;;;;19.89;58.10;100635.25;5071108;27;45485;-64
2022/10/24 10:18:45;;;;;;;;;3.00;1.00;;;;;19.89;57.95;100635.25;5045979;28;45513;-65
2022/10/24 10:21:25;;;;;;;;;2.67;1.33;;;;;20.21;57.33;100638.41;5076152;27;45414;-64
2022/10/24 10:23:56;;;;;;;;;3.00;2.00;;;;;20.11;57.17;100631.75;5054073;28;45516;-65
2022/10/24 10:26:35;;;;;;;;;3.33;2.00;;;;;20.57;56.22;100643.22;5064555;28;45548;-65
2022/10/24 10:29:30;;;;;;;;;4.33;2.00;;;;;20.47;56.58;100632.06;5060048;28;45383;-65
2022/10/24 10:32:08;;;;;;;;;1.67;1.67;;;;;20.24;56.69;100643.66;5052483;28;45350;-67
2022/10/24 10:34:39;;;;;;;;;3.67;1.00;;;;;20.23;56.65;100628.59;5074333;28;45688;-68
2022/10/24 10:37:22;;;;;;;;;5.33;3.33;;;;;20.20;57.10;100631.38;5058458;28;45299;-67
2022/10/24 10:40:14;;;;;;;;;1.67;1.00;;;;;21.43;54.63;100623.63;5053580;28;45535;-65
2022/10/24 10:43:04;;;;;;;;;3.33;1.00;;;;;21.21;54.20;100642.28;5067035;27;45465;-68
2022/10/24 10:45:46;;;;;;;;;2.33;1.33;;;;;22.11;52.94;100634.66;5058620;28;45985;-65
2022/10/24 10:48:34;;;;;;;;;2.00;2.00;;;;;23.67;48.59;100631.25;5063039;27;45394;-67
2022/10/24 10:51:28;;;;;;;;;3.00;2.00;;;;;26.35;44.11;100635.00;5072099;28;46343;-64
2022/10/24 10:54:15;;;;;;;;;2.33;2.33;;;;;27.16;41.20;100622.47;5071726;28;45635;-69
2022/10/24 10:56:55;;;;;;;;;3.25;1.25;;;;;29.00;37.93;100638.72;5052357;28;45528;-66
2022/10/24 10:59:39;;;;;;;;;1.00;1.00;;;;;28.79;38.12;100630.44;5066352;27;45290;-66
2022/10/24 11:02:16;;;;;;;;;3.00;1.75;;;;;28.06;38.57;100625.97;5057922;28;47016;-66
2022/10/24 11:04:53;;;;;;;;;4.40;1.00;;;;;26.76;40.61;100623.34;5067468;28;45436;-65
2022/10/24 11:07:35;;;;;;;;;5.50;2.00;;;;;28.90;36.74;100611.63;5045032;28;45438;-67
2022/10/24 11:10:07;;;;;;;;;5.50;2.00;;;;;27.56;39.35;100634.00;5063315;28;45398;-66
2022/10/24 11:12:39;;;;;;;;;5.25;2.50;;;;;26.02;41.81;100640.75;5075964;27;46214;-65
2022/10/24 11:15:30;;;;;;;;;6.75;3.00;;;;;26.32;41.15;100626.31;5074660;28;45417;-66
2022/10/24 11:18:03;;;;;;;;;4.50;1.75;;;;;25.93;41.87;100612.66;5075009;28;45331;-64
2022/10/24 11:20:34;;;;;;;;;7.75;2.00;;;;;24.52;44.42;100631.94;5075231;28;45390;-65
2022/10/24 11:23:09;;;;;;;;;2.25;1.00;;;;;23.49;46.51;100630.44;5056232;28;45869;-64
2022/10/24 11:25:43;;;;;;;;;1.00;1.00;;;;;22.51;48.87;100632.78;5071080;27;45635;-65
2022/10/24 11:28:36;;;;;;;;;6.25;1.00;;;;;22.23;50.00;100641.25;5075021;27;45529;-66
2022/10/24 11:31:17;;;;;;;;;6.50;3.00;;;;;21.75;51.28;100634.59;5076573;28;45330;-64
2022/10/24 11:34:27;;;;;;;;;4.75;2.00;;;;;21.46;52.50;100649.25;5074395;28;45653;-66
2022/10/24 11:37:05;;;;;;;;;7.75;2.00;;;;;23.59;48.72;100641.50;5027446;28;45407;-65
2022/10/24 11:39:40;;;;;;;;;3.25;1.25;;;;;25.17;45.07;100637.03;5072781;27;45954;-65
2022/10/24 11:42:32;;;;;;;;;3.00;2.50;;;;;26.63;42.48;100635.91;5061185;28;45371;-66